Buoy 13637

sailwx.info

Track history (hours):
 
Tides and Currents Weather Stations Pressure Air Temp Water Temp Dewpoint Dewpoint Depression Visibility Wind Speed Wind Dir Waves Ship Positions

Drifting buoy 13637

Last reported at 2017-Nov-22 18:07 UTC. Time now 2017-Dec-17 14:07 UTC.
Position N 43°28' W 003°28'.
Warning: this ship's position is 24 days out of date.

Water temperature 19.5 ° C

Date/timePositionNaut miles runAvg speedWind from/ knotsBaromVisibWave heightAir tempDewpointWater temp
2017-Nov-22 18:07N 43°28' W 003°28'0 0.0 19.5
2017-Nov-22 18:01N 43°28' W 003°28'0 0.0 18.5
2017-Nov-22 17:44N 43°28' W 003°28'0 0.0 18.2
2017-Nov-22 15:01N 43°28' W 003°28'0 0.0 21.8
2017-Nov-22 11:14N 43°28' W 003°28'0 0.0 20.4
2017-Nov-22 10:31N 43°28' W 003°28'0 0.0 18.9
2017-Nov-22 09:57N 43°28' W 003°28'0 0.0 18.1
2017-Nov-22 09:37N 43°28' W 003°28'0 0.3 17.7
2017-Nov-22 08:15N 43°28' W 003°28'0 0.0 12.5
2017-Nov-22 07:15N 43°28' W 003°28'0 0.0 12.0
2017-Nov-22 06:53N 43°28' W 003°28'0 0.0 230 / 61000.7 10.1 6.5 9.0
2017-Nov-22 06:38N 43°28' W 003°28'0 0.0 11.8
2017-Nov-22 05:35N 43°28' W 003°28'0 2.0 10.7
2017-Nov-22 05:22N 43°28' W 003°28'0 0.0 10.3
2017-Nov-22 05:16N 43°28' W 003°28'0 0.0
2017-Nov-22 03:36N 43°28' W 003°28'0 0.0 8.1
2017-Nov-21 22:13N 43°28' W 003°28'0 0.0 10.2
2017-Nov-21 21:25N 43°28' W 003°28'1 3.6 10.4
2017-Nov-21 21:15N 43°28' W 003°28'0 0.0 10.5
2017-Nov-21 20:29N 43°28' W 003°28'0 0.0
2017-Nov-21 20:01N 43°28' W 003°28'0 0.0 11.5
2017-Nov-21 19:55N 43°28' W 003°28'1 0.4 11.5
2017-Nov-21 18:30N 43°28' W 003°28'0 0.0 13.0
2017-Nov-21 18:29N 43°28' W 003°28'0 0.0 13.0
2017-Nov-21 18:14N 43°28' W 003°28'0 0.0 13.4
2017-Nov-21 16:59N 43°28' W 003°28'0 0.0 16.2
2017-Nov-21 16:43N 43°28' W 003°28'1 0.6 16.5
2017-Nov-21 15:21N 43°28' W 003°29'1 0.6 24.8
2017-Nov-21 13:36N 43°28' W 003°28'1 0.3 16.8
2017-Nov-21 11:38N 43°28' W 003°28'0 0.0 13.7
2017-Nov-21 10:54N 43°28' W 003°28'0 0.0 11.9
2017-Nov-21 09:57N 43°28' W 003°28'0 0.0 9.8
2017-Nov-21 08:31N 43°28' W 003°28'0 0.0 7.6
2017-Nov-21 07:04N 43°28' W 003°28'0 0.0 7.6
2017-Nov-21 06:08N 43°28' W 003°28'0 0.0 7.6
2017-Nov-21 05:33N 43°28' W 003°28'0 0.0 7.7
2017-Nov-21 05:27N 43°28' W 003°28'0 0.0 7.7
2017-Nov-21 05:21N 43°28' W 003°28'0 0.0 7.7
2017-Nov-21 04:23N 43°28' W 003°28'0 0.0 7.8
2017-Nov-21 03:46N 43°28' W 003°28'0 0.0
2017-Nov-20 21:44N 43°28' W 003°28'0 0.0 9.6
2017-Nov-20 21:38N 43°28' W 003°28'0 0.0 9.6
2017-Nov-20 20:54N 43°28' W 003°28'0 0.0 10.1
2017-Nov-20 20:27N 43°28' W 003°28'0 0.0 10.4
2017-Nov-20 20:10N 43°28' W 003°28'0 0.0 10.6
2017-Nov-20 20:01N 43°28' W 003°28'0 0.0 16.3
2017-Nov-20 19:55N 43°28' W 003°28'0 0.0
2017-Nov-20 18:52N 43°28' W 003°28'0 0.0 11.3
2017-Nov-20 18:51N 43°28' W 003°28'0 0.0
2017-Nov-20 18:46N 43°28' W 003°28'0 0.0 11.2
2017-Nov-20 18:30N 43°28' W 003°28'0 0.0 11.2
2017-Nov-20 18:27N 43°28' W 003°28'0 0.0 11.2
2017-Nov-20 17:09N 43°28' W 003°28'0 0.0 12.3
2017-Nov-20 17:05N 43°28' W 003°28'0 0.0
2017-Nov-20 15:31N 43°28' W 003°28'0 0.0 15.3
2017-Nov-20 13:43N 43°28' W 003°28'0 0.0 14.3
2017-Nov-20 11:59N 43°28' W 003°28'0 0.0 11.3
2017-Nov-20 11:12N 43°28' W 003°28'0 0.0 10.4
2017-Nov-20 11:09N 43°28' W 003°28'0 0.0 15.9
2017-Nov-20 10:20N 43°28' W 003°28'0 0.0 9.5
2017-Nov-20 10:13N 43°28' W 003°28'0 0.0 9.0
2017-Nov-20 09:29N 43°28' W 003°28'0 0.0
2017-Nov-20 08:42N 43°28' W 003°28'0 0.0 6.8
2017-Nov-20 08:38N 43°28' W 003°28'0 0.0 6.8
2017-Nov-20 07:01N 43°28' W 003°28'0 0.0 6.3
2017-Nov-20 06:37N 43°28' W 003°28'0 0.0 6.4
2017-Nov-20 05:40N 43°28' W 003°28'0 0.0 6.6
2017-Nov-20 04:58N 43°28' W 003°28'0 0.0 6.6
2017-Nov-20 04:03N 43°28' W 003°28'0 0.0 7.1
2017-Nov-20 03:59N 43°28' W 003°28'0 0.0 7.2
2017-Nov-19 22:01N 43°28' W 003°28'0 0.0 9.6
2017-Nov-19 21:20N 43°28' W 003°28'0 0.0 11.3
2017-Nov-19 20:23N 43°28' W 003°28'0 0.0 11.9
2017-Nov-19 19:21N 43°28' W 003°28'0 0.0 12.0
2017-Nov-19 19:14N 43°28' W 003°28'0 0.0 12.0
2017-Nov-19 18:37N 43°28' W 003°28'0 0.0 12.2
2017-Nov-19 15:41N 43°28' W 003°28'0 0.0 13.9
2017-Nov-19 10:41N 43°28' W 003°28'0 0.0 10.3
2017-Nov-19 08:59N 43°28' W 003°28'0 0.0 6.6
2017-Nov-19 08:53N 43°28' W 003°28'0 0.0 6.6
2017-Nov-19 07:55N 43°28' W 003°28'0 0.0 6.0
2017-Nov-19 07:12N 43°28' W 003°28'0 0.0 6.0
2017-Nov-19 07:11N 43°28' W 003°28'0 0.0 6.0
2017-Nov-19 06:15N 43°28' W 003°28'0 0.0 6.6
2017-Nov-19 05:52N 43°28' W 003°28'0 1.2 6.4
2017-Nov-19 05:31N 43°28' W 003°28'0 0.3 6.5
2017-Nov-19 04:15N 43°28' W 003°28'0 0.0 7.2
2017-Nov-19 02:28N 43°28' W 003°28'0 0.0
2017-Nov-18 22:27N 43°28' W 003°28'0 0.0 9.1
2017-Nov-18 21:37N 43°28' W 003°28'0 0.0 9.5
2017-Nov-18 20:42N 43°28' W 003°28'0 0.0 10.5
2017-Nov-18 19:52N 43°28' W 003°28'0 2.2 11.5
2017-Nov-18 19:40N 43°28' W 003°28'0 0.0 11.6
2017-Nov-18 18:55N 43°28' W 003°28'0 0.0 11.8
2017-Nov-18 18:52N 43°28' W 003°28'0 0.0 11.8
2017-Nov-18 18:49N 43°28' W 003°28'0 0.5 11.8
2017-Nov-18 18:00N 43°28' W 003°28'0 0.0 12.2
2017-Nov-18 15:54N 43°28' W 003°28'0 0.0 13.4
2017-Nov-18 14:10N 43°28' W 003°28'0 0.0 15.7
2017-Nov-18 11:01N 43°28' W 003°28'0 0.6 10.7
2017-Nov-18 10:15N 43°28' W 003°28'0 8.7 10.3
2017-Nov-18 10:12N 43°28' W 003°28'0 0.0 10.3
2017-Nov-18 09:18N 43°28' W 003°28'0 0.0 6.6
2017-Nov-18 09:06N 43°28' W 003°28'0 0.0 9.2
2017-Nov-18 09:01N 43°28' W 003°28'0 0.0
2017-Nov-18 08:15N 43°28' W 003°28'0 0.0
2017-Nov-18 07:25N 43°28' W 003°28'0 0.0 8.5
2017-Nov-18 06:38N 43°28' W 003°28'0 0.0 8.3
2017-Nov-18 06:00N 43°28' W 003°28'0 0.3 8.2
2017-Nov-18 04:26N 43°28' W 003°28'111.1 8.3
2017-Nov-18 04:22N 43°28' W 003°28'0 0.0 8.3
2017-Nov-18 02:44N 43°28' W 003°28'0 0.0 8.7
2017-Nov-17 22:45N 43°28' W 003°28'1 7.2 9.9
2017-Nov-17 22:40N 43°28' W 003°28'0 0.0 9.9
2017-Nov-17 21:56N 43°28' W 003°28'0 0.0 10.3
2017-Nov-17 21:52N 43°28' W 003°28'0 0.0
2017-Nov-17 21:05N 43°28' W 003°28'0 0.0 10.7
2017-Nov-17 20:41N 43°28' W 003°28'0 0.0
2017-Nov-17 20:13N 43°28' W 003°28'0 0.0 11.2
2017-Nov-17 19:07N 43°28' W 003°28'0 0.0 11.6
2017-Nov-17 19:00N 43°28' W 003°28'0 0.0 11.6
2017-Nov-17 18:26N 43°28' W 003°28'0 0.0 11.8
2017-Nov-17 17:20N 43°28' W 003°28'0 0.0 12.5
2017-Nov-17 17:00N 43°28' W 003°28'0 0.0 13.1
2017-Nov-17 16:07N 43°28' W 003°28'0 0.0 14.0
2017-Nov-17 16:01N 43°28' W 003°28'0 0.0 14.3
2017-Nov-17 14:23N 43°28' W 003°28'0 0.0 16.9
2017-Nov-17 14:20N 43°28' W 003°28'0 0.0 16.9
2017-Nov-17 11:20N 43°28' W 003°28'0 0.0
2017-Nov-17 11:18N 43°28' W 003°28'0 0.0 12.5
2017-Nov-17 10:36N 43°28' W 003°28'0 0.0 11.3
2017-Nov-17 09:40N 43°28' W 003°28'0 0.0 9.5
2017-Nov-17 09:15N 43°28' W 003°28'0 0.0 8.6
2017-Nov-17 07:34N 43°28' W 003°28'0 0.0 8.2
2017-Nov-17 07:04N 43°28' W 003°28'0 0.0 8.2
2017-Nov-17 06:31N 43°28' W 003°28'0 0.0 8.2
2017-Nov-17 05:23N 43°28' W 003°28'0 0.0 7.8
2017-Nov-17 04:51N 43°28' W 003°28'0 0.0 7.9
2017-Nov-17 04:38N 43°28' W 003°28'0 0.0 8.0
2017-Nov-17 02:55N 43°28' W 003°28'0 0.0 8.5
2017-Nov-16 21:25N 43°28' W 003°28'0 0.0 10.2
2017-Nov-16 20:34N 43°28' W 003°28'0 0.0 10.5
2017-Nov-16 19:15N 43°28' W 003°28'0 0.0 11.5
2017-Nov-16 18:53N 43°28' W 003°28'0 0.0 11.5
2017-Nov-16 17:35N 43°28' W 003°28'0 0.0 12.2
2017-Nov-16 17:10N 43°28' W 003°28'0 0.0 12.8
2017-Nov-16 16:16N 43°28' W 003°28'0 0.0 14.0
2017-Nov-16 16:13N 43°28' W 003°28'0 0.0 14.0
2017-Nov-16 14:31N 43°28' W 003°28'0 0.0 16.8
2017-Nov-16 11:41N 43°28' W 003°28'0 0.0 11.3
2017-Nov-16 10:56N 43°28' W 003°28'0 0.0 10.2
2017-Nov-16 10:00N 43°28' W 003°28'0 0.0 8.3
2017-Nov-16 09:26N 43°28' W 003°28'0 0.0 7.6
2017-Nov-16 07:50N 43°28' W 003°28'0 0.0 6.1
2017-Nov-16 07:28N 43°28' W 003°28'1 1.3 6.2
2017-Nov-16 07:00N 43°28' W 003°28'1 0.5 6.2
2017-Nov-16 05:49N 43°28' W 003°28'0 0.0 6.3
2017-Nov-16 05:21N 43°28' W 003°28'0 0.0 6.4
2017-Nov-16 04:46N 43°28' W 003°28'0 0.0 6.3
2017-Nov-16 03:09N 43°28' W 003°28'0 0.0 6.3
2017-Nov-15 21:45N 43°28' W 003°28'0 0.0 7.9
2017-Nov-15 21:39N 43°28' W 003°28'0 0.0
2017-Nov-15 21:00N 43°28' W 003°28'0 0.0 8.6
2017-Nov-15 20:04N 43°28' W 003°28'0 0.0 9.2
2017-Nov-15 19:42N 43°28' W 003°28'0 0.0 9.9
2017-Nov-15 19:27N 43°28' W 003°28'0 0.0 10.3
2017-Nov-15 19:13N 43°28' W 003°28'0 0.0 10.7
2017-Nov-15 17:45N 43°28' W 003°28'0 0.0 11.4
2017-Nov-15 17:36N 43°28' W 003°28'0 0.0 11.4
2017-Nov-15 16:27N 43°28' W 003°28'0 0.0 11.9
2017-Nov-15 14:46N 43°28' W 003°28'013.1
2017-Nov-15 14:44N 43°28' W 003°29'0 0.0 15.3
2017-Nov-15 11:15N 43°28' W 003°29'0 0.0 10.7
2017-Nov-15 10:23N 43°28' W 003°29'1 1.1 10.6
2017-Nov-15 09:35N 43°28' W 003°28'0 0.0 9.7
2017-Nov-15 08:01N 43°28' W 003°28'0 0.2 5.9
2017-Nov-15 06:15N 43°28' W 003°28'0 0.0 6.4
2017-Nov-15 05:55N 43°28' W 003°28'0 0.0 6.5
2017-Nov-15 04:59N 43°28' W 003°28'0 0.0 6.8
2017-Nov-15 04:56N 43°28' W 003°28'0 0.0 6.8
2017-Nov-15 04:11N 43°28' W 003°28'0 0.0 6.9
2017-Nov-15 03:19N 43°28' W 003°28'0 0.0 7.3
2017-Nov-14 22:06N 43°28' W 003°28'0 0.0 7.7
2017-Nov-14 21:22N 43°28' W 003°28'0 0.0 7.8
2017-Nov-14 21:16N 43°28' W 003°28'0 0.0
2017-Nov-14 20:24N 43°28' W 003°28'0 0.0
2017-Nov-14 19:40N 43°28' W 003°28'0 0.0 9.2
2017-Nov-14 18:36N 43°28' W 003°28'0 0.7 9.9
2017-Nov-14 18:01N 43°28' W 003°28'0 0.0 10.0
2017-Nov-14 17:56N 43°28' W 003°28'0 0.0 10.0
2017-Nov-14 16:36N 43°28' W 003°28'0 0.0 10.7
2017-Nov-14 15:00N 43°28' W 003°28'0 8.7 16.5
2017-Nov-14 14:57N 43°28' W 003°28'0 0.0 16.5
2017-Nov-14 10:44N 43°28' W 003°28'0 0.5 10.9
2017-Nov-14 09:55N 43°28' W 003°28'0 0.0 9.9
2017-Nov-14 08:59N 43°28' W 003°28'0 0.0 8.7
2017-Nov-14 08:20N 43°28' W 003°28'0 0.0 8.3
2017-Nov-14 08:11N 43°28' W 003°28'0 8.7 8.2
2017-Nov-14 08:08N 43°28' W 003°28'0 0.0 8.2
2017-Nov-14 06:39N 43°28' W 003°28'0 0.0 7.9
2017-Nov-14 06:27N 43°28' W 003°28'0 0.0 7.8
2017-Nov-14 06:25N 43°28' W 003°28'0 0.0 7.8
2017-Nov-14 05:12N 43°28' W 003°28'0 0.0 8.2
2017-Nov-14 05:08N 43°28' W 003°28'0 0.0 8.2
2017-Nov-14 04:44N 43°28' W 003°28'0 0.0 8.3
2017-Nov-14 03:31N 43°28' W 003°28'0 0.0 8.6
2017-Nov-13 22:30N 43°28' W 003°28'0 0.0 11.5
2017-Nov-13 21:39N 43°28' W 003°28'0 0.0 11.6
2017-Nov-13 20:42N 43°28' W 003°28'0 0.0 11.5
2017-Nov-13 19:53N 43°28' W 003°28'0 0.0 11.4
2017-Nov-13 19:09N 43°28' W 003°28'0 0.0 11.3
2017-Nov-13 18:27N 43°28' W 003°28'0 0.0 11.4
2017-Nov-13 18:09N 43°28' W 003°28'0 0.0 11.3
2017-Nov-13 17:28N 43°28' W 003°28'0 0.0 11.4
2017-Nov-13 16:51N 43°28' W 003°28'0 0.0 11.6
2017-Nov-13 16:44N 43°28' W 003°28'0 0.0 11.7
2017-Nov-13 15:12N 43°28' W 003°28'0 8.7 12.0
2017-Nov-13 15:09N 43°28' W 003°28'0 8.7 12.0
2017-Nov-13 15:06N 43°28' W 003°28'0 0.0 12.0
2017-Nov-13 13:25N 43°28' W 003°28'0 0.0
2017-Nov-13 11:01N 43°28' W 003°28'0 0.0 12.0
2017-Nov-13 10:15N 43°28' W 003°28'0 0.0 11.3
2017-Nov-13 09:23N 43°28' W 003°28'0 0.0 11.1
2017-Nov-13 08:24N 43°28' W 003°28'0 0.0 11.6
2017-Nov-13 08:18N 43°28' W 003°28'0 0.0 11.6
2017-Nov-13 07:05N 43°28' W 003°28'0 0.0 11.5
2017-Nov-13 06:56N 43°28' W 003°28'0 0.0 11.5
2017-Nov-13 06:41N 43°28' W 003°28'0 0.0 11.5
2017-Nov-13 05:22N 43°28' W 003°28'0 0.0 11.8
2017-Nov-13 05:15N 43°28' W 003°28'0 0.3 11.9
2017-Nov-13 03:41N 43°28' W 003°28'0 0.0 11.9
2017-Nov-12 22:43N 43°28' W 003°28'0 0.0 12.8
2017-Nov-12 22:01N 43°28' W 003°28'0 0.0 13.0
2017-Nov-12 21:06N 43°28' W 003°28'0 0.4 13.8
2017-Nov-12 19:59N 43°28' W 003°28'0 0.0
2017-Nov-12 19:37N 43°28' W 003°28'0 0.0 13.8
2017-Nov-12 18:51N 43°28' W 003°28'0 0.0 14.1
2017-Nov-12 18:21N 43°28' W 003°28'   14.1
Track history (hours):
 
Tides and Currents Weather Stations Pressure Air Temp Water Temp Dewpoint Dewpoint Depression Visibility Wind Speed Wind Dir Waves Ship Positions

Drifting buoy 13637

Last reported at 2017-Nov-22 18:07 UTC. Time now 2017-Dec-17 14:07 UTC.
Position N 43°28' W 003°28'.
Warning: this ship's position is 24 days out of date.

Water temperature 19.5 ° C

Date/timePositionNaut miles runAvg speedWind from/ knotsBaromVisibWave heightAir tempDewpointWater temp
2017-Nov-22 18:07N 43°28' W 003°28'0 0.0 19.5
2017-Nov-22 18:01N 43°28' W 003°28'0 0.0 18.5
2017-Nov-22 17:44N 43°28' W 003°28'0 0.0 18.2
2017-Nov-22 15:01N 43°28' W 003°28'0 0.0 21.8
2017-Nov-22 11:14N 43°28' W 003°28'0 0.0 20.4
2017-Nov-22 10:31N 43°28' W 003°28'0 0.0 18.9
2017-Nov-22 09:57N 43°28' W 003°28'0 0.0 18.1
2017-Nov-22 09:37N 43°28' W 003°28'0 0.3 17.7
2017-Nov-22 08:15N 43°28' W 003°28'0 0.0 12.5
2017-Nov-22 07:15N 43°28' W 003°28'0 0.0 12.0
2017-Nov-22 06:53N 43°28' W 003°28'0 0.0 230 / 61000.7 10.1 6.5 9.0
2017-Nov-22 06:38N 43°28' W 003°28'0 0.0 11.8
2017-Nov-22 05:35N 43°28' W 003°28'0 2.0 10.7
2017-Nov-22 05:22N 43°28' W 003°28'0 0.0 10.3
2017-Nov-22 05:16N 43°28' W 003°28'0 0.0
2017-Nov-22 03:36N 43°28' W 003°28'0 0.0 8.1
2017-Nov-21 22:13N 43°28' W 003°28'0 0.0 10.2
2017-Nov-21 21:25N 43°28' W 003°28'1 3.6 10.4
2017-Nov-21 21:15N 43°28' W 003°28'0 0.0 10.5
2017-Nov-21 20:29N 43°28' W 003°28'0 0.0
2017-Nov-21 20:01N 43°28' W 003°28'0 0.0 11.5
2017-Nov-21 19:55N 43°28' W 003°28'1 0.4 11.5
2017-Nov-21 18:30N 43°28' W 003°28'0 0.0 13.0
2017-Nov-21 18:29N 43°28' W 003°28'0 0.0 13.0
2017-Nov-21 18:14N 43°28' W 003°28'0 0.0 13.4
2017-Nov-21 16:59N 43°28' W 003°28'0 0.0 16.2
2017-Nov-21 16:43N 43°28' W 003°28'1 0.6 16.5
2017-Nov-21 15:21N 43°28' W 003°29'1 0.6 24.8
2017-Nov-21 13:36N 43°28' W 003°28'1 0.3 16.8
2017-Nov-21 11:38N 43°28' W 003°28'0 0.0 13.7
2017-Nov-21 10:54N 43°28' W 003°28'0 0.0 11.9
2017-Nov-21 09:57N 43°28' W 003°28'0 0.0 9.8
2017-Nov-21 08:31N 43°28' W 003°28'0 0.0 7.6
2017-Nov-21 07:04N 43°28' W 003°28'0 0.0 7.6
2017-Nov-21 06:08N 43°28' W 003°28'0 0.0 7.6
2017-Nov-21 05:33N 43°28' W 003°28'0 0.0 7.7
2017-Nov-21 05:27N 43°28' W 003°28'0 0.0 7.7
2017-Nov-21 05:21N 43°28' W 003°28'0 0.0 7.7
2017-Nov-21 04:23N 43°28' W 003°28'0 0.0 7.8
2017-Nov-21 03:46N 43°28' W 003°28'0 0.0
2017-Nov-20 21:44N 43°28' W 003°28'0 0.0 9.6
2017-Nov-20 21:38N 43°28' W 003°28'0 0.0 9.6
2017-Nov-20 20:54N 43°28' W 003°28'0 0.0 10.1
2017-Nov-20 20:27N 43°28' W 003°28'0 0.0 10.4
2017-Nov-20 20:10N 43°28' W 003°28'0 0.0 10.6
2017-Nov-20 20:01N 43°28' W 003°28'0 0.0 16.3
2017-Nov-20 19:55N 43°28' W 003°28'0 0.0
2017-Nov-20 18:52N 43°28' W 003°28'0 0.0 11.3
2017-Nov-20 18:51N 43°28' W 003°28'0 0.0
2017-Nov-20 18:46N 43°28' W 003°28'0 0.0 11.2
2017-Nov-20 18:30N 43°28' W 003°28'0 0.0 11.2
2017-Nov-20 18:27N 43°28' W 003°28'0 0.0 11.2
2017-Nov-20 17:09N 43°28' W 003°28'0 0.0 12.3
2017-Nov-20 17:05N 43°28' W 003°28'0 0.0
2017-Nov-20 15:31N 43°28' W 003°28'0 0.0 15.3
2017-Nov-20 13:43N 43°28' W 003°28'0 0.0 14.3
2017-Nov-20 11:59N 43°28' W 003°28'0 0.0 11.3
2017-Nov-20 11:12N 43°28' W 003°28'0 0.0 10.4
2017-Nov-20 11:09N 43°28' W 003°28'0 0.0 15.9
2017-Nov-20 10:20N 43°28' W 003°28'0 0.0 9.5
2017-Nov-20 10:13N 43°28' W 003°28'0 0.0 9.0
2017-Nov-20 09:29N 43°28' W 003°28'0 0.0
2017-Nov-20 08:42N 43°28' W 003°28'0 0.0 6.8
2017-Nov-20 08:38N 43°28' W 003°28'0 0.0 6.8
2017-Nov-20 07:01N 43°28' W 003°28'0 0.0 6.3
2017-Nov-20 06:37N 43°28' W 003°28'0 0.0 6.4
2017-Nov-20 05:40N 43°28' W 003°28'0 0.0 6.6
2017-Nov-20 04:58N 43°28' W 003°28'0 0.0 6.6
2017-Nov-20 04:03N 43°28' W 003°28'0 0.0 7.1
2017-Nov-20 03:59N 43°28' W 003°28'0 0.0 7.2
2017-Nov-19 22:01N 43°28' W 003°28'0 0.0 9.6
2017-Nov-19 21:20N 43°28' W 003°28'0 0.0 11.3
2017-Nov-19 20:23N 43°28' W 003°28'0 0.0 11.9
2017-Nov-19 19:21N 43°28' W 003°28'0 0.0 12.0
2017-Nov-19 19:14N 43°28' W 003°28'0 0.0 12.0
2017-Nov-19 18:37N 43°28' W 003°28'0 0.0 12.2
2017-Nov-19 15:41N 43°28' W 003°28'0 0.0 13.9
2017-Nov-19 10:41N 43°28' W 003°28'0 0.0 10.3
2017-Nov-19 08:59N 43°28' W 003°28'0 0.0 6.6
2017-Nov-19 08:53N 43°28' W 003°28'0 0.0 6.6
2017-Nov-19 07:55N 43°28' W 003°28'0 0.0 6.0
2017-Nov-19 07:12N 43°28' W 003°28'0 0.0 6.0
2017-Nov-19 07:11N 43°28' W 003°28'0 0.0 6.0
2017-Nov-19 06:15N 43°28' W 003°28'0 0.0 6.6
2017-Nov-19 05:52N 43°28' W 003°28'0 1.2 6.4
2017-Nov-19 05:31N 43°28' W 003°28'0 0.3 6.5
2017-Nov-19 04:15N 43°28' W 003°28'0 0.0 7.2
2017-Nov-19 02:28N 43°28' W 003°28'0 0.0
2017-Nov-18 22:27N 43°28' W 003°28'0 0.0 9.1
2017-Nov-18 21:37N 43°28' W 003°28'0 0.0 9.5
2017-Nov-18 20:42N 43°28' W 003°28'0 0.0 10.5
2017-Nov-18 19:52N 43°28' W 003°28'0 2.2 11.5
2017-Nov-18 19:40N 43°28' W 003°28'0 0.0 11.6
2017-Nov-18 18:55N 43°28' W 003°28'0 0.0 11.8
2017-Nov-18 18:52N 43°28' W 003°28'0 0.0 11.8
2017-Nov-18 18:49N 43°28' W 003°28'0 0.5 11.8
2017-Nov-18 18:00N 43°28' W 003°28'0 0.0 12.2
2017-Nov-18 15:54N 43°28' W 003°28'0 0.0 13.4
2017-Nov-18 14:10N 43°28' W 003°28'0 0.0 15.7
2017-Nov-18 11:01N 43°28' W 003°28'0 0.6 10.7
2017-Nov-18 10:15N 43°28' W 003°28'0 8.7 10.3
2017-Nov-18 10:12N 43°28' W 003°28'0 0.0 10.3
2017-Nov-18 09:18N 43°28' W 003°28'0 0.0 6.6
2017-Nov-18 09:06N 43°28' W 003°28'0 0.0 9.2
2017-Nov-18 09:01N 43°28' W 003°28'0 0.0
2017-Nov-18 08:15N 43°28' W 003°28'0 0.0
2017-Nov-18 07:25N 43°28' W 003°28'0 0.0 8.5
2017-Nov-18 06:38N 43°28' W 003°28'0 0.0 8.3
2017-Nov-18 06:00N 43°28' W 003°28'0 0.3 8.2
2017-Nov-18 04:26N 43°28' W 003°28'111.1 8.3
2017-Nov-18 04:22N 43°28' W 003°28'0 0.0 8.3
2017-Nov-18 02:44N 43°28' W 003°28'0 0.0 8.7
2017-Nov-17 22:45N 43°28' W 003°28'1 7.2 9.9
2017-Nov-17 22:40N 43°28' W 003°28'0 0.0 9.9
2017-Nov-17 21:56N 43°28' W 003°28'0 0.0 10.3
2017-Nov-17 21:52N 43°28' W 003°28'0 0.0
2017-Nov-17 21:05N 43°28' W 003°28'0 0.0 10.7
2017-Nov-17 20:41N 43°28' W 003°28'0 0.0
2017-Nov-17 20:13N 43°28' W 003°28'0 0.0 11.2
2017-Nov-17 19:07N 43°28' W 003°28'0 0.0 11.6
2017-Nov-17 19:00N 43°28' W 003°28'0 0.0 11.6
2017-Nov-17 18:26N 43°28' W 003°28'0 0.0 11.8
2017-Nov-17 17:20N 43°28' W 003°28'0 0.0 12.5
2017-Nov-17 17:00N 43°28' W 003°28'0 0.0 13.1
2017-Nov-17 16:07N 43°28' W 003°28'0 0.0 14.0
2017-Nov-17 16:01N 43°28' W 003°28'0 0.0 14.3
2017-Nov-17 14:23N 43°28' W 003°28'0 0.0 16.9
2017-Nov-17 14:20N 43°28' W 003°28'0 0.0 16.9
2017-Nov-17 11:20N 43°28' W 003°28'0 0.0
2017-Nov-17 11:18N 43°28' W 003°28'0 0.0 12.5
2017-Nov-17 10:36N 43°28' W 003°28'0 0.0 11.3
2017-Nov-17 09:40N 43°28' W 003°28'0 0.0 9.5
2017-Nov-17 09:15N 43°28' W 003°28'0 0.0 8.6
2017-Nov-17 07:34N 43°28' W 003°28'0 0.0 8.2
2017-Nov-17 07:04N 43°28' W 003°28'0 0.0 8.2
2017-Nov-17 06:31N 43°28' W 003°28'0 0.0 8.2
2017-Nov-17 05:23N 43°28' W 003°28'0 0.0 7.8
2017-Nov-17 04:51N 43°28' W 003°28'0 0.0 7.9
2017-Nov-17 04:38N 43°28' W 003°28'0 0.0 8.0
2017-Nov-17 02:55N 43°28' W 003°28'0 0.0 8.5
2017-Nov-16 21:25N 43°28' W 003°28'0 0.0 10.2
2017-Nov-16 20:34N 43°28' W 003°28'0 0.0 10.5
2017-Nov-16 19:15N 43°28' W 003°28'0 0.0 11.5
2017-Nov-16 18:53N 43°28' W 003°28'0 0.0 11.5
2017-Nov-16 17:35N 43°28' W 003°28'0 0.0 12.2
2017-Nov-16 17:10N 43°28' W 003°28'0 0.0 12.8
2017-Nov-16 16:16N 43°28' W 003°28'0 0.0 14.0
2017-Nov-16 16:13N 43°28' W 003°28'0 0.0 14.0
2017-Nov-16 14:31N 43°28' W 003°28'0 0.0 16.8
2017-Nov-16 11:41N 43°28' W 003°28'0 0.0 11.3
2017-Nov-16 10:56N 43°28' W 003°28'0 0.0 10.2
2017-Nov-16 10:00N 43°28' W 003°28'0 0.0 8.3
2017-Nov-16 09:26N 43°28' W 003°28'0 0.0 7.6
2017-Nov-16 07:50N 43°28' W 003°28'0 0.0 6.1
2017-Nov-16 07:28N 43°28' W 003°28'1 1.3 6.2
2017-Nov-16 07:00N 43°28' W 003°28'1 0.5 6.2
2017-Nov-16 05:49N 43°28' W 003°28'0 0.0 6.3
2017-Nov-16 05:21N 43°28' W 003°28'0 0.0 6.4
2017-Nov-16 04:46N 43°28' W 003°28'0 0.0 6.3
2017-Nov-16 03:09N 43°28' W 003°28'0 0.0 6.3
2017-Nov-15 21:45N 43°28' W 003°28'0 0.0 7.9
2017-Nov-15 21:39N 43°28' W 003°28'0 0.0
2017-Nov-15 21:00N 43°28' W 003°28'0 0.0 8.6
2017-Nov-15 20:04N 43°28' W 003°28'0 0.0 9.2
2017-Nov-15 19:42N 43°28' W 003°28'0 0.0 9.9
2017-Nov-15 19:27N 43°28' W 003°28'0 0.0 10.3
2017-Nov-15 19:13N 43°28' W 003°28'0 0.0 10.7
2017-Nov-15 17:45N 43°28' W 003°28'0 0.0 11.4
2017-Nov-15 17:36N 43°28' W 003°28'0 0.0 11.4
2017-Nov-15 16:27N 43°28' W 003°28'0 0.0 11.9
2017-Nov-15 14:46N 43°28' W 003°28'013.1
2017-Nov-15 14:44N 43°28' W 003°29'0 0.0 15.3
2017-Nov-15 11:15N 43°28' W 003°29'0 0.0 10.7
2017-Nov-15 10:23N 43°28' W 003°29'1 1.1 10.6
2017-Nov-15 09:35N 43°28' W 003°28'0 0.0 9.7
2017-Nov-15 08:01N 43°28' W 003°28'0 0.2 5.9
2017-Nov-15 06:15N 43°28' W 003°28'0 0.0 6.4
2017-Nov-15 05:55N 43°28' W 003°28'0 0.0 6.5
2017-Nov-15 04:59N 43°28' W 003°28'0 0.0 6.8
2017-Nov-15 04:56N 43°28' W 003°28'0 0.0 6.8
2017-Nov-15 04:11N 43°28' W 003°28'0 0.0 6.9
2017-Nov-15 03:19N 43°28' W 003°28'0 0.0 7.3
2017-Nov-14 22:06N 43°28' W 003°28'0 0.0 7.7
2017-Nov-14 21:22N 43°28' W 003°28'0 0.0 7.8
2017-Nov-14 21:16N 43°28' W 003°28'0 0.0
2017-Nov-14 20:24N 43°28' W 003°28'0 0.0
2017-Nov-14 19:40N 43°28' W 003°28'0 0.0 9.2
2017-Nov-14 18:36N 43°28' W 003°28'0 0.7 9.9
2017-Nov-14 18:01N 43°28' W 003°28'0 0.0 10.0
2017-Nov-14 17:56N 43°28' W 003°28'0 0.0 10.0
2017-Nov-14 16:36N 43°28' W 003°28'0 0.0 10.7
2017-Nov-14 15:00N 43°28' W 003°28'0 8.7 16.5
2017-Nov-14 14:57N 43°28' W 003°28'0 0.0 16.5
2017-Nov-14 10:44N 43°28' W 003°28'0 0.5 10.9
2017-Nov-14 09:55N 43°28' W 003°28'0 0.0 9.9
2017-Nov-14 08:59N 43°28' W 003°28'0 0.0 8.7
2017-Nov-14 08:20N 43°28' W 003°28'0 0.0 8.3
2017-Nov-14 08:11N 43°28' W 003°28'0 8.7 8.2
2017-Nov-14 08:08N 43°28' W 003°28'0 0.0 8.2
2017-Nov-14 06:39N 43°28' W 003°28'0 0.0 7.9
2017-Nov-14 06:27N 43°28' W 003°28'0 0.0 7.8
2017-Nov-14 06:25N 43°28' W 003°28'0 0.0 7.8
2017-Nov-14 05:12N 43°28' W 003°28'0 0.0 8.2
2017-Nov-14 05:08N 43°28' W 003°28'0 0.0 8.2
2017-Nov-14 04:44N 43°28' W 003°28'0 0.0 8.3
2017-Nov-14 03:31N 43°28' W 003°28'0 0.0 8.6
2017-Nov-13 22:30N 43°28' W 003°28'0 0.0 11.5
2017-Nov-13 21:39N 43°28' W 003°28'0 0.0 11.6
2017-Nov-13 20:42N 43°28' W 003°28'0 0.0 11.5
2017-Nov-13 19:53N 43°28' W 003°28'0 0.0 11.4
2017-Nov-13 19:09N 43°28' W 003°28'0 0.0 11.3
2017-Nov-13 18:27N 43°28' W 003°28'0 0.0 11.4
2017-Nov-13 18:09N 43°28' W 003°28'0 0.0 11.3
2017-Nov-13 17:28N 43°28' W 003°28'0 0.0 11.4
2017-Nov-13 16:51N 43°28' W 003°28'0 0.0 11.6
2017-Nov-13 16:44N 43°28' W 003°28'0 0.0 11.7
2017-Nov-13 15:12N 43°28' W 003°28'0 8.7 12.0
2017-Nov-13 15:09N 43°28' W 003°28'0 8.7 12.0
2017-Nov-13 15:06N 43°28' W 003°28'0 0.0 12.0
2017-Nov-13 13:25N 43°28' W 003°28'0 0.0
2017-Nov-13 11:01N 43°28' W 003°28'0 0.0 12.0
2017-Nov-13 10:15N 43°28' W 003°28'0 0.0 11.3
2017-Nov-13 09:23N 43°28' W 003°28'0 0.0 11.1
2017-Nov-13 08:24N 43°28' W 003°28'0 0.0 11.6
2017-Nov-13 08:18N 43°28' W 003°28'0 0.0 11.6
2017-Nov-13 07:05N 43°28' W 003°28'0 0.0 11.5
2017-Nov-13 06:56N 43°28' W 003°28'0 0.0 11.5
2017-Nov-13 06:41N 43°28' W 003°28'0 0.0 11.5
2017-Nov-13 05:22N 43°28' W 003°28'0 0.0 11.8
2017-Nov-13 05:15N 43°28' W 003°28'0 0.3 11.9
2017-Nov-13 03:41N 43°28' W 003°28'0 0.0 11.9
2017-Nov-12 22:43N 43°28' W 003°28'0 0.0 12.8
2017-Nov-12 22:01N 43°28' W 003°28'0 0.0 13.0
2017-Nov-12 21:06N 43°28' W 003°28'0 0.4 13.8
2017-Nov-12 19:59N 43°28' W 003°28'0 0.0
2017-Nov-12 19:37N 43°28' W 003°28'0 0.0 13.8
2017-Nov-12 18:51N 43°28' W 003°28'0 0.0 14.1
2017-Nov-12 18:21N 43°28' W 003°28'   14.1

Dump ship's entire track history